Time,TemperatureF,DewpointF,PressureIn,WindDirection,WindDirectionDegrees,WindSpeedMPH,WindSpeedGustMPH,Humidity,HourlyPrecipIn,Conditions,Clouds,dailyrainin,SoftwareType,DateUTC
2013-08-24 00:24:00,77.0,74.0,29.98,ESE,118,0.0,0.0,90,0.00,,,0.10,,2013-08-24 04:24:00,
2013-08-24 00:44:00,77.0,74.0,29.99,ESE,118,0.0,0.0,91,0.00,,,0.10,,2013-08-24 04:44:00,
2013-08-24 00:54:00,77.0,74.0,29.98,ENE,73,0.0,0.0,91,0.00,,,0.10,,2013-08-24 04:54:00,
2013-08-24 01:23:00,77.0,74.0,29.98,ESE,122,0.0,0.0,91,0.00,,,0.10,,2013-08-24 05:23:00,
2013-08-24 01:53:00,77.0,74.0,29.98,ENE,61,0.0,0.0,92,0.00,,,0.10,,2013-08-24 05:53:00,
2013-08-24 02:22:00,77.0,75.0,29.97,East,96,0.0,0.0,93,0.00,,,0.10,,2013-08-24 06:22:00,
2013-08-24 02:52:00,76.0,74.0,29.97,ESE,117,0.0,0.0,93,0.00,,,0.10,,2013-08-24 06:52:00,
2013-08-24 03:12:00,76.0,74.0,29.97,ESE,117,0.0,0.0,93,0.00,,,0.10,,2013-08-24 07:12:00,
2013-08-24 03:22:00,76.0,74.0,29.97,ESE,117,0.0,0.0,93,0.00,,,0.10,,2013-08-24 07:22:00,
2013-08-24 03:43:00,76.0,74.0,29.97,SE,134,0.0,0.0,93,0.00,,,0.10,,2013-08-24 07:43:00,
2013-08-24 03:53:00,76.0,74.0,29.97,East,93,0.0,3.0,93,0.00,,,0.10,,2013-08-24 07:53:00,
2013-08-24 04:22:00,76.0,74.0,29.97,East,82,0.0,0.0,93,0.00,,,0.10,,2013-08-24 08:22:00,
2013-08-24 04:52:00,76.0,74.0,29.96,ESE,113,0.0,0.0,93,0.00,,,0.10,,2013-08-24 08:52:00,
2013-08-24 05:22:00,76.0,74.0,29.97,ESE,113,0.0,0.0,93,0.00,,,0.10,,2013-08-24 09:22:00,
2013-08-24 05:53:00,75.0,73.0,29.97,ESE,113,0.0,0.0,93,0.00,,,0.10,,2013-08-24 09:53:00,
2013-08-24 06:23:00,75.0,73.0,29.97,ESE,113,0.0,0.0,93,0.00,,,0.09,,2013-08-24 10:23:00,
2013-08-24 06:42:00,76.0,74.0,29.97,ESE,113,0.0,0.0,93,0.00,,,0.09,,2013-08-24 10:42:00,
2013-08-24 06:53:00,75.0,73.0,29.98,ESE,113,0.0,0.0,93,0.00,,,0.09,,2013-08-24 10:53:00,
2013-08-24 07:12:00,76.0,74.0,29.98,ESE,113,0.0,0.0,93,0.00,,,0.09,,2013-08-24 11:12:00,
2013-08-24 07:22:00,75.0,73.0,29.98,ESE,113,0.0,0.0,93,0.00,,,0.09,,2013-08-24 11:22:00,
2013-08-24 07:52:00,76.0,74.0,29.99,ESE,113,0.0,0.0,94,0.00,,,0.09,,2013-08-24 11:52:00,
2013-08-24 08:12:00,76.0,74.0,29.99,ESE,115,0.0,0.0,94,0.00,,,0.09,,2013-08-24 12:12:00,
2013-08-24 08:21:00,76.0,74.0,29.99,ESE,115,0.0,2.0,94,0.00,,,0.09,,2013-08-24 12:21:00,
2013-08-24 08:42:00,77.0,75.0,30.01,ESE,105,0.0,0.0,94,0.00,,,0.09,,2013-08-24 12:42:00,
2013-08-24 08:52:00,78.0,76.0,30.01,ESE,119,1.0,3.0,93,0.00,,,0.09,,2013-08-24 12:52:00,
2013-08-24 09:11:00,79.0,77.0,30.02,SSE,155,1.0,2.0,93,0.00,,,0.09,,2013-08-24 13:11:00,
2013-08-24 09:22:00,80.0,77.0,30.02,ESE,103,2.0,4.0,91,0.00,,,0.09,,2013-08-24 13:22:00,
2013-08-24 09:52:00,82.0,78.0,30.03,SE,139,1.0,5.0,87,0.00,,,0.09,,2013-08-24 13:52:00,
2013-08-24 10:11:00,82.0,77.0,30.03,ESE,117,1.0,5.0,85,0.00,,,0.09,,2013-08-24 14:11:00,
2013-08-24 10:22:00,83.0,78.0,30.04,East,89,1.0,4.0,84,0.00,,,0.09,,2013-08-24 14:22:00,
2013-08-24 10:52:00,84.0,77.0,30.05,ESE,105,1.0,5.0,80,0.01,,,0.10,,2013-08-24 14:52:00,
2013-08-24 11:22:00,86.0,79.0,30.06,SE,126,1.0,4.0,80,0.01,,,0.10,,2013-08-24 15:22:00,
2013-08-24 11:54:00,87.0,78.0,30.05,ESE,107,2.0,7.0,75,0.00,,,0.10,,2013-08-24 15:54:00,
2013-08-24 12:13:00,88.0,78.0,30.05,ENE,61,1.0,7.0,73,0.00,,,0.10,,2013-08-24 16:13:00,
2013-08-24 12:23:00,89.0,78.0,30.05,ESE,115,1.0,4.0,70,0.00,,,0.10,,2013-08-24 16:23:00,
2013-08-24 12:53:00,89.0,77.0,30.04,ESE,121,3.0,7.0,68,0.00,,,0.10,,2013-08-24 16:53:00,
2013-08-24 13:12:00,90.0,77.0,30.03,SSW,192,1.0,4.0,66,0.00,,,0.10,,2013-08-24 17:12:00,
2013-08-24 13:23:00,91.0,77.0,30.03,SE,133,3.0,7.0,63,0.00,,,0.10,,2013-08-24 17:23:00,
2013-08-24 13:42:00,90.0,76.0,30.03,SSW,212,3.0,6.0,64,0.00,,,0.10,,2013-08-24 17:42:00,
2013-08-24 13:52:00,90.0,77.0,30.03,SE,140,2.0,5.0,66,0.00,,,0.10,,2013-08-24 17:52:00,
2013-08-24 14:13:00,91.0,78.0,30.03,SW,219,0.0,3.0,66,0.00,,,0.10,,2013-08-24 18:13:00,
2013-08-24 14:22:00,92.0,78.0,30.03,SSW,207,1.0,5.0,63,0.00,,,0.10,,2013-08-24 18:22:00,
2013-08-24 14:53:00,93.0,75.0,30.01,ENE,60,0.0,4.0,57,0.00,,,0.10,,2013-08-24 18:53:00,
2013-08-24 15:12:00,93.0,79.0,30.01,NE,34,0.0,3.0,64,0.00,,,0.10,,2013-08-24 19:12:00,
2013-08-24 15:22:00,93.0,77.0,30.00,NE,54,0.0,2.0,59,0.00,,,0.10,,2013-08-24 19:22:00,
2013-08-24 15:52:00,91.0,78.0,29.99,WNW,296,1.0,3.0,66,0.00,,,0.10,,2013-08-24 19:52:00,
2013-08-24 16:22:00,90.0,78.0,29.98,NW,305,2.0,6.0,68,0.00,,,0.10,,2013-08-24 20:22:00,
2013-08-24 16:53:00,90.0,80.0,29.98,NNW,340,1.0,5.0,72,0.02,,,0.12,,2013-08-24 20:53:00,
2013-08-24 17:22:00,91.0,79.0,29.98,West,272,3.0,8.0,69,0.02,,,0.08,,2013-08-24 21:22:00,
2013-08-24 17:55:00,89.0,79.0,29.97,WNW,290,3.0,11.0,72,0.00,,,0.08,,2013-08-24 21:55:00,
2013-08-24 18:24:00,87.0,77.0,29.98,NW,321,5.0,11.0,73,0.00,,,0.03,,2013-08-24 22:24:00,
2013-08-24 18:53:00,86.0,78.0,30.00,North,360,2.0,4.0,77,0.11,,,0.14,,2013-08-24 22:53:00,
2013-08-24 19:53:00,75.0,73.0,30.04,SSE,154,5.0,12.0,94,2.28,,,2.42,,2013-08-24 23:53:00,
2013-08-24 20:12:00,75.0,73.0,30.04,ESE,113,2.0,9.0,94,1.65,,,2.44,,2013-08-25 00:12:00,
2013-08-24 20:22:00,75.0,73.0,30.03,ESE,107,2.0,8.0,95,0.52,,,2.46,,2013-08-25 00:22:00,
2013-08-24 20:42:00,75.0,73.0,30.05,ESE,115,0.0,4.0,95,0.14,,,2.47,,2013-08-25 00:42:00,
2013-08-24 20:52:00,75.0,73.0,30.06,NE,36,0.0,5.0,95,0.07,,,2.49,,2013-08-25 00:52:00,
2013-08-24 21:11:00,75.0,73.0,30.06,East,96,0.0,1.0,95,0.05,,,2.50,,2013-08-25 01:11:00,
2013-08-24 21:22:00,75.0,73.0,30.06,ESE,110,1.0,3.0,95,0.07,,,2.53,,2013-08-25 01:22:00,
2013-08-24 21:42:00,75.0,73.0,30.06,ESE,113,0.0,3.0,95,0.09,,,2.56,,2013-08-25 01:42:00,
2013-08-24 21:52:00,75.0,73.0,30.06,ESE,116,1.0,5.0,95,0.07,,,2.56,,2013-08-25 01:52:00,
2013-08-24 22:22:00,75.0,73.0,30.06,ESE,120,0.0,3.0,95,0.04,,,2.57,,2013-08-25 02:22:00,
2013-08-24 22:42:00,75.0,74.0,30.06,SSE,158,0.0,0.0,96,0.01,,,2.57,,2013-08-25 02:42:00,
2013-08-24 22:52:00,75.0,74.0,30.06,NNE,24,0.0,0.0,96,0.01,,,2.57,,2013-08-25 02:52:00,
2013-08-24 23:23:00,75.0,73.0,30.06,East,101,0.0,5.0,95,0.00,,,2.57,,2013-08-25 03:23:00,
2013-08-24 23:54:00,76.0,75.0,30.09,SSE,147,0.0,4.0,96,0.00,,,2.57,,2013-08-25 03:54:00,